createdAt,value
2019-01-03T11:12:25.003Z,18.20
2019-01-03T11:14:54.961Z,18.30
2019-01-03T11:17:28.152Z,18.40
2019-01-03T11:19:57.288Z,18.80
2019-01-03T11:22:26.840Z,19.20
2019-01-03T11:24:57.527Z,18.50
2019-01-03T11:27:36.621Z,17.90
2019-01-03T11:30:07.888Z,17.60
2019-01-03T11:35:23.593Z,17.40
2019-01-03T11:40:43.188Z,17.20
2019-01-03T11:43:20.217Z,17.20
2019-01-03T11:45:49.836Z,17.30
2019-01-03T11:51:10.876Z,16.50
2019-01-03T11:53:47.126Z,16.60
2019-01-03T11:56:15.942Z,16.50
2019-01-03T11:59:00.882Z,16.50
2019-01-03T12:01:29.878Z,16.60
2019-01-03T12:04:13.889Z,16.60
2019-01-03T12:06:43.007Z,16.70
2019-01-03T12:09:12.738Z,16.70
2019-01-03T12:11:47.388Z,16.60
2019-01-03T12:14:16.756Z,16.50
2019-01-03T12:16:47.086Z,16.60
2019-01-03T12:19:16.516Z,16.60
2019-01-03T12:21:46.015Z,16.50
2019-01-03T12:24:15.903Z,16.60
2019-01-03T12:26:47.155Z,16.60
2019-01-03T12:29:16.818Z,16.60
2019-01-03T12:31:45.661Z,16.60
2019-01-03T12:34:26.953Z,16.50
2019-01-03T12:36:56.227Z,16.50
2019-01-03T12:39:39.672Z,16.40
2019-01-03T12:42:12.251Z,16.40
2019-01-03T12:44:44.094Z,16.50
2019-01-03T12:47:15.308Z,16.60
2019-01-03T12:49:47.619Z,16.90
2019-01-03T12:52:18.117Z,17.40
2019-01-03T12:54:47.278Z,17.90
2019-01-03T12:57:20.787Z,19.00
2019-01-03T12:59:52.066Z,19.20
2019-01-03T13:02:27.453Z,19.90
2019-01-03T13:04:58.365Z,20.50
2019-01-03T13:07:46.681Z,20.70
2019-01-03T13:10:23.364Z,20.30
2019-01-03T13:12:52.289Z,20.00
2019-01-03T13:15:34.860Z,19.70
2019-01-03T13:18:05.586Z,19.70
2019-01-03T13:20:36.105Z,19.70
2019-01-03T13:23:06.908Z,19.50
2019-01-03T13:25:37.424Z,19.70
2019-01-03T13:28:06.589Z,19.50
2019-01-03T13:30:35.655Z,19.40
2019-01-03T13:33:07.473Z,19.30
2019-01-03T13:35:38.669Z,19.30
2019-01-03T13:38:08.693Z,19.00
2019-01-03T13:40:38.000Z,19.00
2019-01-03T13:43:07.059Z,18.80
2019-01-03T13:45:38.376Z,18.60
2019-01-03T13:48:12.019Z,18.40
2019-01-03T13:50:49.885Z,18.40
2019-01-03T13:53:22.391Z,18.40
2019-01-03T13:55:53.479Z,18.30
2019-01-03T13:58:23.928Z,18.30
2019-01-03T14:00:52.804Z,18.10
2019-01-03T14:03:21.758Z,18.10
2019-01-03T14:05:53.982Z,18.30
2019-01-03T14:08:26.316Z,18.20
2019-01-03T14:10:58.007Z,18.10
2019-01-03T14:13:27.665Z,17.90
2019-01-03T14:16:02.659Z,17.80
2019-01-03T14:18:33.892Z,17.90
2019-01-03T14:21:03.132Z,17.80
2019-01-03T14:23:32.080Z,18.00
2019-01-03T14:26:03.974Z,18.70
2019-01-03T14:28:32.822Z,18.20
2019-01-03T14:31:06.105Z,18.20
2019-01-03T14:33:35.948Z,18.40
2019-01-03T14:36:08.566Z,18.50
2019-01-03T14:38:37.488Z,18.40
2019-01-03T14:41:12.900Z,17.80
2019-01-03T14:43:48.553Z,18.40
2019-01-03T14:46:19.673Z,18.30
2019-01-03T14:48:57.644Z,18.10
2019-01-03T14:51:33.716Z,18.30
2019-01-03T14:54:15.173Z,18.00
2019-01-03T14:57:01.025Z,17.80
2019-01-03T14:59:42.285Z,18.10
2019-01-03T15:02:12.186Z,18.60
2019-01-03T15:04:41.380Z,18.90
2019-01-03T15:07:10.590Z,19.30
2019-01-03T15:09:40.185Z,19.80
2019-01-03T15:12:09.246Z,20.00
2019-01-03T15:14:38.277Z,20.10
2019-01-03T15:17:08.256Z,19.80
2019-01-03T15:19:37.272Z,19.80
2019-01-03T15:22:06.714Z,19.50
2019-01-03T15:24:57.590Z,19.30
2019-01-03T15:27:27.220Z,19.30
2019-01-03T15:29:56.195Z,19.20
2019-01-03T15:32:25.326Z,19.20
2019-01-03T15:34:57.104Z,19.10
2019-01-03T15:37:26.366Z,19.80
2019-01-03T15:39:55.562Z,21.00
2019-01-03T15:42:25.634Z,20.40
2019-01-03T15:44:54.670Z,20.00
2019-01-03T15:47:26.133Z,19.70
2019-01-03T15:49:59.570Z,19.40
2019-01-03T15:52:28.983Z,19.10
2019-01-03T15:54:58.143Z,18.50
2019-01-03T15:57:27.047Z,18.20
2019-01-03T15:59:56.111Z,17.80
2019-01-03T16:02:25.469Z,17.30
2019-01-03T16:04:59.320Z,17.40
2019-01-03T16:07:29.869Z,17.00
2019-01-03T16:09:59.555Z,17.00
2019-01-03T16:12:29.918Z,16.80
2019-01-03T16:15:01.109Z,16.70
2019-01-03T16:17:30.819Z,16.60
2019-01-03T16:20:00.347Z,17.20
2019-01-03T16:22:30.531Z,17.80
2019-01-03T16:24:59.638Z,17.90
2019-01-03T16:27:29.894Z,18.50
2019-01-03T16:30:04.990Z,18.80
2019-01-03T16:32:40.244Z,19.30
2019-01-03T16:35:10.679Z,19.80
2019-01-03T16:37:40.003Z,19.90
2019-01-03T16:40:10.390Z,19.60
2019-01-03T16:42:42.895Z,18.90
2019-01-03T16:45:12.756Z,18.50
2019-01-03T16:47:42.966Z,18.00
2019-01-03T16:50:13.569Z,17.60
2019-01-03T16:52:43.121Z,17.40
2019-01-03T16:55:12.818Z,17.10
2019-01-03T16:57:48.045Z,16.90
2019-01-03T17:00:21.769Z,16.90
2019-01-03T17:02:55.353Z,16.70
2019-01-03T17:05:26.965Z,16.70
2019-01-03T17:07:56.376Z,16.60
2019-01-03T17:10:32.584Z,16.50
2019-01-03T17:13:02.954Z,16.40
2019-01-03T17:15:37.589Z,16.30
2019-01-03T17:18:11.875Z,16.20
2019-01-03T17:20:41.362Z,16.20
2019-01-03T17:23:17.382Z,16.20
2019-01-03T17:26:34.331Z,16.10
2019-01-03T17:29:10.371Z,16.10
2019-01-03T17:31:40.370Z,15.90
2019-01-03T17:34:10.660Z,15.80
2019-01-03T17:36:41.376Z,15.80
2019-01-03T17:39:10.814Z,15.80
2019-01-03T17:41:43.093Z,15.70
2019-01-03T17:44:14.239Z,15.70
2019-01-03T17:46:48.375Z,15.60
2019-01-03T17:49:18.522Z,15.60
2019-01-03T17:51:52.842Z,15.60
2019-01-03T17:54:23.658Z,15.60
2019-01-03T17:56:54.753Z,15.60
2019-01-03T17:59:29.254Z,15.90
2019-01-03T18:01:59.544Z,16.20
2019-01-03T18:04:31.372Z,16.60
2019-01-03T18:07:11.549Z,17.00
2019-01-03T18:09:41.831Z,17.20
2019-01-03T18:12:22.925Z,17.70
2019-01-03T18:15:00.036Z,18.40
2019-01-03T18:17:29.636Z,19.00
2019-01-03T18:19:59.006Z,19.50
2019-01-03T18:22:47.654Z,19.90
2019-01-03T18:25:18.074Z,19.90
2019-01-03T18:27:48.245Z,19.30
2019-01-03T18:30:18.746Z,19.00
2019-01-03T18:32:49.117Z,18.60
2019-01-03T18:35:19.494Z,18.40
2019-01-03T18:37:49.105Z,18.30
2019-01-03T18:40:19.201Z,18.00
2019-01-03T18:42:59.723Z,17.90
2019-01-03T18:45:31.509Z,17.80
2019-01-03T18:48:01.473Z,17.70
2019-01-03T18:50:32.327Z,17.70
2019-01-03T18:53:06.889Z,17.60
2019-01-03T18:55:41.273Z,17.40
2019-01-03T18:58:25.101Z,17.40
2019-01-03T19:00:59.302Z,17.40
2019-01-03T19:03:29.830Z,17.30
2019-01-03T19:05:59.729Z,17.30
2019-01-03T19:08:40.092Z,17.20
2019-01-03T19:11:09.926Z,16.80
2019-01-03T19:13:40.644Z,16.70
2019-01-03T19:16:14.918Z,16.50
2019-01-03T19:18:45.161Z,16.30
2019-01-03T19:21:26.709Z,16.30
2019-01-03T19:24:00.747Z,16.20
2019-01-03T19:26:33.771Z,16.00
2019-01-03T19:29:08.279Z,15.90
2019-01-03T19:31:43.415Z,15.80
2019-01-03T19:34:13.803Z,15.70
2019-01-03T19:36:48.129Z,15.90
2019-01-03T19:39:29.753Z,16.30
2019-01-03T19:42:01.349Z,16.90
2019-01-03T19:44:35.871Z,17.70
2019-01-03T19:47:10.326Z,17.80
2019-01-03T19:49:41.085Z,18.10
2019-01-03T19:52:15.226Z,18.40
2019-01-03T19:54:46.897Z,18.80
2019-01-03T19:57:20.727Z,19.00
2019-01-03T19:59:52.383Z,19.20
2019-01-03T20:02:27.438Z,19.00
2019-01-03T20:05:02.304Z,18.80
2019-01-03T20:07:47.872Z,18.40
2019-01-03T20:10:21.704Z,17.90
2019-01-03T20:12:56.188Z,17.40
2019-01-03T20:15:28.238Z,17.50
2019-01-03T20:18:08.877Z,17.40
2019-01-03T20:20:43.241Z,17.30
2019-01-03T20:23:14.077Z,17.40
2019-01-03T20:25:47.948Z,17.20
2019-01-03T20:28:22.503Z,17.20
2019-01-03T20:30:53.565Z,17.30
2019-01-03T20:33:27.530Z,17.50
2019-01-03T20:35:57.985Z,17.50
2019-01-03T20:38:29.859Z,17.60
2019-01-03T20:41:03.741Z,17.50
2019-01-03T20:43:39.301Z,17.50
2019-01-03T20:46:10.016Z,17.40
2019-01-03T20:48:45.448Z,17.30
2019-01-03T20:51:19.793Z,17.30
2019-01-03T20:53:50.646Z,16.90
2019-01-03T20:56:20.486Z,16.70
2019-01-03T20:58:55.064Z,16.60
2019-01-03T21:01:25.695Z,16.50
2019-01-03T21:03:56.159Z,16.30
2019-01-03T21:06:27.111Z,16.20
2019-01-03T21:08:57.257Z,16.40
2019-01-03T21:11:28.491Z,17.00
2019-01-03T21:13:58.782Z,18.70
2019-01-03T21:16:28.976Z,21.40
2019-01-03T21:18:59.086Z,21.50
2019-01-03T21:21:30.641Z,21.30
2019-01-03T21:24:00.908Z,20.70
2019-01-03T21:26:31.468Z,20.00
2019-01-03T21:29:01.747Z,19.40
2019-01-03T21:31:32.297Z,19.00
2019-01-03T21:34:02.848Z,18.60
2019-01-03T21:36:32.549Z,18.30
2019-01-03T21:39:02.449Z,17.90
2019-01-03T21:41:32.074Z,17.70
2019-01-03T21:44:02.054Z,17.50
2019-01-03T21:46:35.812Z,17.30
2019-01-03T21:49:05.738Z,17.10
2019-01-03T21:51:43.024Z,17.10
2019-01-03T21:54:18.833Z,16.90
2019-01-03T21:57:00.596Z,17.00
2019-01-03T21:59:35.146Z,18.20
2019-01-03T22:02:05.661Z,19.70
2019-01-03T22:04:39.977Z,20.00
2019-01-03T22:07:13.555Z,19.30
2019-01-03T22:09:44.172Z,18.60
2019-01-03T22:12:14.214Z,18.20
2019-01-03T22:14:47.740Z,17.80
2019-01-03T22:17:21.973Z,17.60
2019-01-03T22:19:56.048Z,17.30
2019-01-03T22:22:29.787Z,17.30
2019-01-03T22:25:04.927Z,17.10
2019-01-03T22:27:38.382Z,17.00
2019-01-03T22:30:13.464Z,16.90
2019-01-03T22:32:47.594Z,16.80
2019-01-03T22:35:21.933Z,16.70
2019-01-03T22:38:13.145Z,16.90
2019-01-03T22:40:46.834Z,16.90
2019-01-03T22:43:20.467Z,17.00
2019-01-03T22:45:54.632Z,16.90
2019-01-03T22:48:28.674Z,17.10
2019-01-03T22:51:02.361Z,16.90
2019-01-03T22:53:36.199Z,17.00
2019-01-03T22:56:09.968Z,16.90
2019-01-03T22:58:43.448Z,17.00
2019-01-03T23:01:13.308Z,17.00
2019-01-03T23:03:43.841Z,17.20
2019-01-03T23:06:13.871Z,17.80
2019-01-03T23:08:44.349Z,18.50
2019-01-03T23:11:15.538Z,18.90
2019-01-03T23:13:45.149Z,19.00
2019-01-03T23:16:19.201Z,19.30
2019-01-03T23:18:53.695Z,19.70
2019-01-03T23:21:27.593Z,20.20
2019-01-03T23:24:01.588Z,20.50
2019-01-03T23:26:35.676Z,20.80
2019-01-03T23:29:09.476Z,21.10
2019-01-03T23:31:43.686Z,21.60
2019-01-03T23:34:17.350Z,21.80
2019-01-03T23:36:51.589Z,22.30
2019-01-03T23:39:25.460Z,22.50
2019-01-03T23:41:59.755Z,21.90
2019-01-03T23:44:33.650Z,21.20
2019-01-03T23:47:07.626Z,21.10
2019-01-03T23:49:41.560Z,21.50
2019-01-03T23:52:16.233Z,22.10
2019-01-03T23:54:50.529Z,22.30
2019-01-03T23:57:24.365Z,22.30
2019-01-03T23:59:58.587Z,21.50
